Time;durP1;ratioP1;P1;durP2;ratioP2;P2;SDS_P1;SDS_P2;PMS_P1;PMS_P2;Temp;Humidity;BMP_temperature;BMP_pressure;BME280_temperature;BME280_humidity;BME280_pressure;Samples;Min_cycle;Max_cycle;Signal;HPM_P1;HPM_P2
2021/09/11 00:01:09;;;;;;;19.30;5.28;;;;;;;20.11;88.56;100478.13;5014795;28;20451;-86
2021/09/11 00:03:34;;;;;;;15.65;4.93;;;;;;;20.17;87.81;100477.47;5024731;28;20041;-86
2021/09/11 00:05:59;;;;;;;21.50;5.35;;;;;;;19.90;90.42;100475.91;5034169;28;20079;-86
2021/09/11 00:08:25;;;;;;;18.42;5.53;;;;;;;20.14;88.04;100475.16;5034329;28;20026;-87
2021/09/11 00:10:50;;;;;;;17.65;5.18;;;;;;;20.05;88.50;100475.31;5034086;28;20526;-86
2021/09/11 00:13:16;;;;;;;10.48;4.88;;;;;;;20.14;87.25;100469.81;5033936;28;20415;-86
2021/09/11 00:15:42;;;;;;;14.00;5.40;;;;;;;19.95;88.06;100470.94;5034001;28;20471;-86
2021/09/11 00:18:07;;;;;;;16.98;4.70;;;;;;;20.12;87.24;100470.97;5053076;28;20029;-85
2021/09/11 00:20:32;;;;;;;16.50;5.25;;;;;;;20.26;86.85;100474.81;5054067;28;20029;-86
2021/09/11 00:23:00;;;;;;;19.90;5.32;;;;;;;20.13;88.17;100476.13;5053368;28;20059;-86
2021/09/11 00:25:26;;;;;;;19.13;4.90;;;;;;;20.09;87.70;100480.13;5053718;28;20032;-86
2021/09/11 00:27:52;;;;;;;13.50;4.63;;;;;;;20.05;88.04;100476.13;5053598;28;20033;-87
2021/09/11 00:30:17;;;;;;;16.65;5.03;;;;;;;20.15;87.56;100484.78;5053770;28;20033;-86
2021/09/11 00:32:43;;;;;;;15.55;5.03;;;;;;;20.20;86.65;100482.47;5017332;28;20115;-86
2021/09/11 00:35:18;;;;;;;21.58;5.68;;;;;;;20.30;87.27;100486.81;5013883;28;20033;-86
2021/09/11 00:37:44;;;;;;;22.60;5.97;;;;;;;19.91;89.36;100488.25;5014618;28;20380;-86
2021/09/11 00:40:11;;;;;;;21.60;5.53;;;;;;;20.07;88.49;100487.47;5033562;28;20017;-87
2021/09/11 00:42:37;;;;;;;17.40;5.18;;;;;;;20.15;87.23;100487.47;5032975;28;20029;-86
2021/09/11 00:45:04;;;;;;;20.38;4.90;;;;;;;19.97;88.91;100492.09;5033437;28;20067;-86
2021/09/11 00:47:29;;;;;;;15.35;4.32;;;;;;;20.11;88.00;100483.47;5033432;28;20384;-88
2021/09/11 00:49:55;;;;;;;14.13;4.15;;;;;;;20.18;87.08;100489.81;5033511;28;20157;-86
2021/09/11 00:52:21;;;;;;;15.82;4.97;;;;;;;20.26;86.01;100483.66;5033173;28;20052;-86
2021/09/11 00:54:47;;;;;;;24.38;4.20;;;;;;;20.08;87.05;100480.28;5033137;28;20037;-86
2021/09/11 00:57:13;;;;;;;12.68;3.90;;;;;;;20.15;85.77;100478.63;5029768;28;20109;-86
2021/09/11 00:59:38;;;;;;;18.55;4.28;;;;;;;20.12;87.35;100479.81;5013358;28;20522;-86
2021/09/11 01:02:04;;;;;;;18.30;4.78;;;;;;;20.12;86.47;100477.16;5013421;28;20112;-86
2021/09/11 01:04:29;;;;;;;16.95;5.18;;;;;;;19.96;87.29;100485.09;5022551;28;20037;-86
2021/09/11 01:06:57;;;;;;;16.48;4.70;;;;;;;20.20;86.27;100477.16;5031814;28;20068;-86
2021/09/11 01:09:22;;;;;;;22.38;5.07;;;;;;;20.05;87.18;100483.28;5032844;28;20032;-87
2021/09/11 01:11:48;;;;;;;15.65;4.47;;;;;;;20.18;85.67;100483.63;5032695;28;20037;-86
2021/09/11 01:14:13;;;;;;;12.05;4.88;;;;;;;20.09;86.98;100480.13;5032989;28;20025;-86
2021/09/11 01:16:39;;;;;;;16.15;4.47;;;;;;;20.15;85.85;100473.31;5023681;28;20030;-86
2021/09/11 01:19:04;;;;;;;20.38;5.55;;;;;;;19.67;90.05;100478.34;5013272;28;20476;-86
2021/09/11 01:21:29;;;;;;;13.18;4.47;;;;;;;19.89;88.07;100478.78;5013021;28;20048;-86
2021/09/11 01:23:55;;;;;;;15.00;4.57;;;;;;;19.87;88.00;100480.75;5013019;28;20389;-86
2021/09/11 01:26:20;;;;;;;18.45;5.00;;;;;;;19.84;87.96;100473.91;5012874;28;20124;-86
2021/09/11 01:28:46;;;;;;;20.17;4.70;;;;;;;19.84;88.37;100478.41;5013155;28;20026;-86
2021/09/11 01:31:11;;;;;;;15.55;4.82;;;;;;;20.00;86.22;100473.97;5019212;28;20379;-86
2021/09/11 01:33:37;;;;;;;13.95;4.63;;;;;;;20.00;86.45;100478.44;5032531;28;20475;-86
2021/09/11 01:36:02;;;;;;;14.90;5.40;;;;;;;19.59;90.12;100473.00;5031721;28;20037;-86
2021/09/11 01:38:28;;;;;;;20.83;5.65;;;;;;;19.74;90.19;100481.22;5032498;28;20552;-86
2021/09/11 01:40:53;;;;;;;13.02;4.47;;;;;;;19.92;87.63;100475.75;5032390;28;20030;-86
2021/09/11 01:43:34;;;;;;;14.65;4.50;;;;;;;20.13;86.99;100475.31;5032476;28;20025;-86
2021/09/11 01:45:59;;;;;;;18.17;4.78;;;;;;;19.73;88.79;100480.38;5024730;28;20041;-86
2021/09/11 01:48:27;;;;;;;18.13;5.53;;;;;;;19.86;88.24;100476.41;5012178;28;20206;-86
2021/09/11 01:50:52;;;;;;;18.38;4.68;;;;;;;19.99;87.30;100480.28;5011054;28;20419;-86
2021/09/11 01:53:17;;;;;;;18.08;4.63;;;;;;;20.05;86.18;100486.78;5012513;28;20053;-86
2021/09/11 01:55:43;;;;;;;7.70;3.78;;;;;;;19.91;86.96;100482.94;5012125;28;20476;-86
2021/09/11 01:58:08;;;;;;;20.10;4.57;;;;;;;19.98;85.81;100491.09;5029261;28;20037;-86
2021/09/11 02:00:34;;;;;;;16.27;4.63;;;;;;;19.73;88.52;100484.88;5032133;28;20033;-86
2021/09/11 02:02:59;;;;;;;11.88;4.43;;;;;;;19.93;86.90;100493.44;5032041;28;20071;-86
2021/09/11 02:05:24;;;;;;;15.85;4.03;;;;;;;19.80;87.32;100493.88;5030827;28;20029;-86
2021/09/11 02:07:50;;;;;;;13.07;4.03;;;;;;;19.88;87.03;100491.22;5032134;28;20017;-86
2021/09/11 02:10:18;;;;;;;11.60;3.67;;;;;;;19.82;86.89;100494.56;5032053;28;20480;-86
2021/09/11 02:12:43;;;;;;;15.07;4.53;;;;;;;19.73;87.47;100499.03;5016083;28;20030;-87
2021/09/11 02:15:10;;;;;;;13.60;4.30;;;;;;;19.72;88.13;100500.00;5012114;28;20026;-86
2021/09/11 02:17:36;;;;;;;11.13;4.07;;;;;;;19.89;86.61;100500.91;5012162;28;20088;-86
2021/09/11 02:20:03;;;;;;;17.88;4.10;;;;;;;19.66;89.18;100500.63;5012240;28;20026;-86
2021/09/11 02:22:28;;;;;;;15.30;3.85;;;;;;;19.88;86.29;100503.72;5013501;28;20432;-86
2021/09/11 02:24:54;;;;;;;10.23;3.45;;;;;;;19.75;86.78;100498.88;5023320;28;20076;-86
2021/09/11 02:27:20;;;;;;;13.15;3.97;;;;;;;19.81;85.92;100499.06;5031759;28;20583;-86
2021/09/11 02:29:45;;;;;;;14.40;5.22;;;;;;;19.77;86.51;100494.22;5031900;28;20029;-86
2021/09/11 02:32:10;;;;;;;13.98;4.18;;;;;;;19.76;87.01;100490.69;5031786;28;20028;-86
2021/09/11 02:34:36;;;;;;;16.10;3.88;;;;;;;19.70;86.63;100495.81;5031738;28;20044;-86
2021/09/11 02:37:01;;;;;;;11.43;4.53;;;;;;;19.86;86.05;100501.22;5031543;28;20034;-86
2021/09/11 02:39:27;;;;;;;8.43;3.35;;;;;;;19.77;87.07;100492.38;5021750;28;20028;-86
2021/09/11 02:41:52;;;;;;;9.52;3.72;;;;;;;19.80;85.62;100497.38;5011938;28;20059;-86
2021/09/11 02:44:18;;;;;;;12.25;4.00;;;;;;;19.67;86.05;100489.00;5013091;28;20060;-86
2021/09/11 02:46:43;;;;;;;7.22;3.88;;;;;;;19.77;85.96;100480.91;5013496;28;20109;-86
2021/09/11 02:49:08;;;;;;;15.00;4.75;;;;;;;19.66;86.51;100491.81;5015917;28;20085;-86
2021/09/11 02:51:34;;;;;;;10.35;3.70;;;;;;;19.73;85.67;100479.56;5018179;28;20033;-86
2021/09/11 02:54:00;;;;;;;9.13;4.25;;;;;;;19.66;86.06;100483.81;5035359;28;20032;-86
2021/09/11 02:56:25;;;;;;;14.77;4.40;;;;;;;19.62;86.32;100483.31;5035321;28;20021;-86
2021/09/11 02:58:51;;;;;;;13.02;3.75;;;;;;;19.79;85.22;100478.91;5035672;28;20494;-86
2021/09/11 03:01:16;;;;;;;20.63;5.15;;;;;;;19.65;86.03;100483.00;5035120;28;20026;-86
2021/09/11 03:03:42;;;;;;;11.07;5.82;;;;;;;19.30;87.70;100476.03;5035649;28;20032;-86
2021/09/11 03:06:08;;;;;;;17.63;4.70;;;;;;;19.53;87.88;100474.47;5034122;28;20026;-86
2021/09/11 03:08:33;;;;;;;11.95;4.57;;;;;;;19.65;85.79;100475.00;5015631;28;20022;-86
2021/09/11 03:10:58;;;;;;;12.18;5.30;;;;;;;19.59;86.44;100475.66;5023604;28;20051;-86
2021/09/11 03:13:24;;;;;;;20.50;4.88;;;;;;;19.39;87.32;100478.56;5035130;28;20025;-86
2021/09/11 03:15:49;;;;;;;12.27;4.65;;;;;;;19.32;88.20;100477.53;5035248;28;20132;-86
2021/09/11 03:18:15;;;;;;;13.27;4.68;;;;;;;19.46;86.84;100484.09;5035288;28;20399;-86
2021/09/11 03:20:41;;;;;;;13.15;4.88;;;;;;;19.44;87.55;100478.09;5024039;28;20060;-86
2021/09/11 03:23:06;;;;;;;12.57;6.18;;;;;;;19.30;87.32;100466.22;5014016;28;20029;-86
2021/09/11 03:25:32;;;;;;;12.50;4.95;;;;;;;19.61;85.48;100468.34;5015314;28;20026;-86
2021/09/11 03:27:58;;;;;;;14.00;4.22;;;;;;;19.19;88.01;100466.47;5026302;28;20123;-86
2021/09/11 03:30:24;;;;;;;15.07;4.65;;;;;;;19.35;86.90;100476.38;5035084;28;20026;-86
2021/09/11 03:32:50;;;;;;;14.50;4.55;;;;;;;19.23;86.86;100473.16;5034796;28;20029;-86
2021/09/11 03:35:15;;;;;;;15.52;4.72;;;;;;;19.27;87.46;100471.84;5034682;28;20164;-86
2021/09/11 03:37:41;;;;;;;12.18;3.88;;;;;;;19.25;87.17;100467.69;5034595;28;20018;-86
2021/09/11 03:40:06;;;;;;;11.85;3.85;;;;;;;19.55;84.88;100471.63;5035071;28;20033;-86
2021/09/11 03:42:32;;;;;;;13.95;4.45;;;;;;;19.52;84.14;100463.97;5044010;28;20091;-86
2021/09/11 03:44:57;;;;;;;16.83;4.65;;;;;;;19.64;83.99;100465.34;5053275;28;20035;-86
2021/09/11 03:47:23;;;;;;;9.55;3.60;;;;;;;19.65;83.20;100461.69;5054763;28;20418;-86
2021/09/11 03:49:48;;;;;;;8.55;3.53;;;;;;;19.64;82.98;100461.84;5050006;28;20218;-86
2021/09/11 03:52:14;;;;;;;11.13;4.28;;;;;;;19.63;83.19;100463.69;5034534;28;20063;-86
2021/09/11 03:54:39;;;;;;;11.30;3.92;;;;;;;19.69;82.73;100475.50;5019247;28;20034;-86
2021/09/11 03:57:05;;;;;;;11.80;3.88;;;;;;;19.40;84.12;100472.25;5014216;28;20049;-86
2021/09/11 03:59:30;;;;;;;17.95;4.40;;;;;;;19.33;84.83;100476.56;5013874;28;20499;-86
2021/09/11 04:01:56;;;;;;;12.82;4.75;;;;;;;19.41;84.82;100473.06;5032043;28;20026;-86
2021/09/11 04:04:21;;;;;;;10.73;4.68;;;;;;;19.58;83.65;100473.97;5034499;28;20026;-86
2021/09/11 04:06:47;;;;;;;13.95;4.03;;;;;;;19.52;83.63;100467.47;5034287;28;20104;-86
2021/09/11 04:09:12;;;;;;;10.88;4.07;;;;;;;19.56;83.61;100481.28;5034257;28;20021;-86
2021/09/11 04:11:37;;;;;;;11.88;3.92;;;;;;;19.58;82.82;100482.78;5034232;28;20025;-86
2021/09/11 04:14:03;;;;;;;15.13;3.97;;;;;;;19.61;82.87;100482.47;5034020;28;20476;-86
2021/09/11 04:16:28;;;;;;;11.35;3.45;;;;;;;19.56;82.29;100484.78;5018125;28;20037;-86
2021/09/11 04:18:53;;;;;;;11.07;3.90;;;;;;;19.57;82.46;100491.78;5014486;28;20022;-86
2021/09/11 04:21:19;;;;;;;10.63;3.88;;;;;;;19.53;81.89;100494.91;5025999;28;20029;-86
2021/09/11 04:23:44;;;;;;;6.90;3.08;;;;;;;19.55;82.43;100490.25;5014170;28;20117;-86
2021/09/11 04:26:09;;;;;;;8.05;3.50;;;;;;;19.49;82.58;100498.91;5036442;28;20069;-86
2021/09/11 04:28:35;;;;;;;11.02;3.70;;;;;;;19.39;83.08;100499.88;5052088;28;20049;-86
2021/09/11 04:31:00;;;;;;;9.32;3.38;;;;;;;19.14;83.54;100495.41;5036006;28;20029;-86
2021/09/11 04:33:26;;;;;;;10.02;3.75;;;;;;;19.30;83.21;100506.16;5034931;28;20476;-86
2021/09/11 04:35:51;;;;;;;9.23;3.30;;;;;;;19.29;83.68;100509.78;5034461;28;20034;-86
2021/09/11 04:38:16;;;;;;;15.38;3.47;;;;;;;19.23;83.08;100505.09;5037546;28;20029;-86
2021/09/11 04:40:42;;;;;;;7.03;3.42;;;;;;;18.96;84.89;100514.94;5033441;28;20464;-86
2021/09/11 04:43:07;;;;;;;8.93;3.30;;;;;;;19.15;83.50;100507.72;5040380;28;20037;-86
2021/09/11 04:45:33;;;;;;;11.20;4.07;;;;;;;18.97;85.08;100516.59;5046666;28;20029;-86
2021/09/11 04:47:59;;;;;;;10.90;3.80;;;;;;;18.99;84.72;100513.78;5046760;28;20031;-86
2021/09/11 04:50:25;;;;;;;8.35;3.65;;;;;;;18.85;86.01;100517.00;5045405;28;20259;-86
2021/09/11 04:52:50;;;;;;;8.80;3.83;;;;;;;19.15;83.72;100513.88;5053264;28;20020;-86
2021/09/11 04:55:16;;;;;;;10.88;3.67;;;;;;;19.08;83.39;100517.34;5053120;28;20383;-86
2021/09/11 04:57:42;;;;;;;7.13;3.47;;;;;;;19.28;81.90;100517.94;5053260;28;20383;-86
2021/09/11 05:00:08;;;;;;;8.48;3.38;;;;;;;19.35;80.79;100519.81;5053353;28;20021;-86
2021/09/11 05:02:33;;;;;;;13.15;3.85;;;;;;;19.34;80.65;100518.13;5053301;28;20029;-86
2021/09/11 05:04:58;;;;;;;8.60;2.90;;;;;;;19.39;79.85;100521.19;5052955;28;20383;-86
2021/09/11 05:07:24;;;;;;;6.55;3.47;;;;;;;19.31;79.67;100515.81;5053019;28;20071;-86
2021/09/11 05:09:50;;;;;;;7.13;2.85;;;;;;;19.38;80.37;100518.66;5052962;28;20037;-86
2021/09/11 05:12:16;;;;;;;8.15;3.30;;;;;;;19.40;79.81;100519.34;5052840;28;20063;-86
2021/09/11 05:14:41;;;;;;;10.75;3.92;;;;;;;19.23;81.12;100510.41;5052855;28;20021;-86
2021/09/11 05:17:07;;;;;;;9.95;3.70;;;;;;;19.27;81.00;100517.09;5052720;28;20021;-86
2021/09/11 05:19:32;;;;;;;9.00;2.92;;;;;;;19.29;80.80;100515.09;5051578;28;20114;-86
2021/09/11 05:21:58;;;;;;;5.50;2.58;;;;;;;19.30;80.50;100506.16;5052869;28;20032;-86
2021/09/11 05:24:23;;;;;;;6.43;2.80;;;;;;;19.19;81.10;100514.38;5051590;28;20430;-86
2021/09/11 05:26:48;;;;;;;6.20;2.58;;;;;;;19.36;80.29;100525.97;5052741;28;20017;-86
2021/09/11 05:29:14;;;;;;;10.32;3.30;;;;;;;19.27;80.30;100530.41;5052481;28;20104;-86
2021/09/11 05:31:39;;;;;;;14.30;2.95;;;;;;;19.26;79.61;100523.44;5052657;28;20430;-86
2021/09/11 05:34:05;;;;;;;10.10;2.95;;;;;;;19.32;78.95;100525.44;5052378;28;20028;-86
2021/09/11 05:36:31;;;;;;;9.13;2.90;;;;;;;19.38;79.84;100531.97;5052562;28;20043;-86
2021/09/11 05:38:57;;;;;;;8.32;2.92;;;;;;;19.35;79.74;100534.94;5052407;28;20036;-86
2021/09/11 05:41:22;;;;;;;7.80;3.90;;;;;;;19.39;79.91;100533.63;5052346;28;20033;-86
2021/09/11 05:43:48;;;;;;;6.03;2.97;;;;;;;19.25;80.11;100529.72;5052419;28;20031;-86
2021/09/11 05:46:13;;;;;;;6.18;3.30;;;;;;;19.24;80.13;100537.91;5052715;28;20025;-86
2021/09/11 05:48:38;;;;;;;10.23;3.22;;;;;;;19.40;79.18;100536.13;5052171;28;20028;-86
2021/09/11 05:51:04;;;;;;;8.30;2.97;;;;;;;19.38;78.91;100538.13;5052330;28;20107;-86
2021/09/11 05:53:29;;;;;;;5.38;2.78;;;;;;;19.38;78.80;100546.13;5052020;28;20040;-86
2021/09/11 05:55:54;;;;;;;9.13;3.10;;;;;;;19.33;79.06;100545.78;5052150;28;20036;-86
2021/09/11 05:58:20;;;;;;;6.65;2.85;;;;;;;19.30;79.55;100543.41;5052251;28;20017;-86
2021/09/11 06:00:46;;;;;;;5.38;2.97;;;;;;;19.32;79.66;100554.75;5051965;28;20108;-86
2021/09/11 06:03:11;;;;;;;10.27;3.25;;;;;;;19.28;79.45;100560.53;5051983;28;20384;-86
2021/09/11 06:05:37;;;;;;;7.47;3.10;;;;;;;19.27;79.82;100554.38;5051934;28;20025;-86
2021/09/11 06:08:02;;;;;;;9.95;3.78;;;;;;;19.16;80.44;100562.63;5052082;28;20017;-86
2021/09/11 06:10:28;;;;;;;6.47;3.38;;;;;;;19.23;80.35;100568.97;5052121;28;20048;-86
2021/09/11 06:12:53;;;;;;;6.18;2.95;;;;;;;19.31;80.38;100566.41;5051789;28;20503;-85
2021/09/11 06:15:19;;;;;;;5.80;2.92;;;;;;;19.27;79.52;100565.00;5051778;28;20060;-86
2021/09/11 06:17:45;;;;;;;12.25;3.50;;;;;;;19.32;80.71;100573.38;5047621;28;20532;-86
2021/09/11 06:20:11;;;;;;;9.77;3.17;;;;;;;19.17;80.39;100574.94;5022087;28;20117;-86
2021/09/11 06:22:36;;;;;;;9.23;3.20;;;;;;;19.30;80.18;100572.69;5030857;28;20037;-86
2021/09/11 06:25:02;;;;;;;7.57;3.33;;;;;;;19.30;80.13;100583.34;5030482;28;20029;-86
2021/09/11 06:27:27;;;;;;;6.47;3.03;;;;;;;19.40;80.43;100589.41;5031357;28;20076;-86
2021/09/11 06:29:53;;;;;;;6.70;3.08;;;;;;;19.51;79.23;100592.78;5031022;28;20112;-86
2021/09/11 06:32:18;;;;;;;4.57;2.78;;;;;;;19.54;78.57;100587.97;5030502;28;20102;-86
2021/09/11 06:34:44;;;;;;;5.30;3.03;;;;;;;19.58;78.47;100586.66;5029103;28;20026;-86
2021/09/11 06:37:09;;;;;;;9.48;2.97;;;;;;;19.54;79.13;100590.63;5031069;28;20096;-86
2021/09/11 06:39:34;;;;;;;7.38;2.85;;;;;;;19.54;78.54;100587.97;5031369;28;20036;-86
2021/09/11 06:42:00;;;;;;;7.68;3.05;;;;;;;19.65;77.34;100594.88;5031548;28;20448;-85
2021/09/11 06:44:25;;;;;;;15.15;3.90;;;;;;;19.48;77.17;100593.09;5031550;28;20017;-86
2021/09/11 06:46:50;;;;;;;10.25;2.80;;;;;;;19.56;77.51;100595.81;5031652;28;20049;-86
2021/09/11 06:49:16;;;;;;;5.88;3.00;;;;;;;19.67;78.20;100608.00;5031573;28;20033;-86
2021/09/11 06:51:41;;;;;;;8.38;3.15;;;;;;;19.80;77.23;100601.28;5030483;28;20164;-86
2021/09/11 06:54:06;;;;;;;7.82;3.22;;;;;;;19.87;75.35;100604.16;5030902;28;20055;-86
2021/09/11 06:56:32;;;;;;;9.23;3.20;;;;;;;19.84;75.59;100614.28;5032433;28;20030;-86
2021/09/11 06:58:57;;;;;;;10.00;3.55;;;;;;;19.76;76.53;100609.75;5031616;28;20116;-86
2021/09/11 07:01:23;;;;;;;8.93;2.72;;;;;;;19.72;76.71;100619.06;5031758;28;20044;-86
2021/09/11 07:03:49;;;;;;;7.72;2.75;;;;;;;19.85;76.39;100626.63;5029951;28;20498;-87
2021/09/11 07:06:15;;;;;;;9.90;4.07;;;;;;;20.19;73.98;100619.44;5031598;28;20035;-86
2021/09/11 07:08:40;;;;;;;8.60;3.42;;;;;;;20.07;72.50;100620.72;5031141;28;20029;-86
2021/09/11 07:11:11;;;;;;;7.28;3.20;;;;;;;20.30;73.61;100630.78;5032067;28;20032;-86
2021/09/11 07:13:36;;;;;;;10.43;3.00;;;;;;;19.95;74.59;100628.19;5030945;28;20021;-86
2021/09/11 07:16:01;;;;;;;10.25;3.05;;;;;;;20.02;73.65;100625.69;5030859;28;20080;-86
2021/09/11 07:18:27;;;;;;;10.13;2.90;;;;;;;20.06;74.11;100628.88;5030996;28;20388;-86
2021/09/11 07:20:52;;;;;;;4.53;2.25;;;;;;;20.35;73.09;100623.16;5031085;28;20506;-86
2021/09/11 07:23:17;;;;;;;6.40;2.75;;;;;;;20.54;72.23;100627.38;5029620;28;20044;-86
2021/09/11 07:25:43;;;;;;;7.78;2.78;;;;;;;20.48;72.19;100628.84;5030350;28;20029;-86
2021/09/11 07:28:08;;;;;;;9.85;2.95;;;;;;;20.91;71.02;100637.63;5031782;28;20480;-86
2021/09/11 07:30:35;;;;;;;5.28;2.58;;;;;;;20.76;69.98;100634.75;5031053;28;20421;-86
2021/09/11 07:33:01;;;;;;;6.82;2.38;;;;;;;20.97;69.76;100638.75;5031666;28;20113;-86
2021/09/11 07:35:27;;;;;;;6.75;2.35;;;;;;;21.16;70.46;100642.94;5035166;28;20163;-88
2021/09/11 07:37:52;;;;;;;6.30;2.80;;;;;;;21.68;68.35;100647.94;5034817;28;20079;-87
2021/09/11 07:40:18;;;;;;;8.70;2.80;;;;;;;21.88;67.12;100644.84;5033695;28;20483;-88
2021/09/11 07:42:43;;;;;;;8.82;3.28;;;;;;;22.01;67.38;100652.31;5034700;28;20079;-88
2021/09/11 07:45:13;;;;;;;8.05;2.05;;;;;;;22.09;65.57;100653.13;5034619;28;20025;-88
2021/09/11 07:47:40;;;;;;;7.55;2.53;;;;;;;22.05;65.94;100654.47;5034726;28;20059;-88
2021/09/11 07:50:06;;;;;;;9.18;2.55;;;;;;;22.54;64.27;100664.13;5034595;28;20499;-87
2021/09/11 07:52:31;;;;;;;7.53;2.15;;;;;;;22.75;63.82;100655.47;5034913;28;20480;-87
2021/09/11 07:54:56;;;;;;;5.97;2.03;;;;;;;22.71;63.69;100665.72;5034304;28;20033;-87
2021/09/11 07:57:22;;;;;;;7.55;2.30;;;;;;;22.63;63.38;100663.09;5034351;28;20124;-87
2021/09/11 07:59:47;;;;;;;7.95;2.28;;;;;;;22.65;64.03;100665.56;5034487;28;20057;-87
2021/09/11 08:02:12;;;;;;;5.95;2.03;;;;;;;22.94;63.31;100664.88;5034752;28;20017;-87
2021/09/11 08:04:38;;;;;;;6.47;2.45;;;;;;;22.82;62.43;100661.78;5034312;28;20029;-87
2021/09/11 08:07:03;;;;;;;9.10;2.95;;;;;;;22.73;62.27;100652.97;5034220;28;20029;-87
2021/09/11 08:09:28;;;;;;;9.80;2.53;;;;;;;22.69;63.48;100664.19;5034229;28;20049;-87
2021/09/11 08:11:54;;;;;;;7.90;2.58;;;;;;;22.93;62.89;100664.03;5034098;28;20427;-87
2021/09/11 08:14:19;;;;;;;13.15;2.33;;;;;;;22.68;62.75;100665.22;5033976;28;20025;-87
2021/09/11 08:16:44;;;;;;;9.77;2.63;;;;;;;23.01;61.74;100657.78;5033863;28;20108;-87
2021/09/11 08:19:10;;;;;;;11.18;2.47;;;;;;;22.68;62.57;100666.03;5034385;28;20061;-87
2021/09/11 08:21:35;;;;;;;9.93;2.78;;;;;;;22.51;63.22;100670.69;5033946;28;20052;-87
2021/09/11 08:24:00;;;;;;;14.25;2.45;;;;;;;22.48;62.95;100676.38;5033931;28;20108;-87
2021/09/11 08:26:26;;;;;;;7.25;2.88;;;;;;;22.24;64.18;100663.97;5033920;28;20029;-87
2021/09/11 08:28:51;;;;;;;13.20;2.72;;;;;;;22.40;63.67;100676.41;5034011;28;20476;-87
2021/09/11 08:31:17;;;;;;;11.45;2.60;;;;;;;22.79;63.09;100678.22;5033736;28;20049;-86
2021/09/11 08:33:43;;;;;;;11.77;2.50;;;;;;;23.29;61.35;100679.50;5033865;28;20264;-86
2021/09/11 08:36:09;;;;;;;6.78;2.85;;;;;;;23.35;61.44;100692.19;5033816;28;20614;-88
2021/09/11 08:38:35;;;;;;;10.15;2.55;;;;;;;22.81;62.50;100689.56;5033494;28;20029;-87
2021/09/11 08:41:03;;;;;;;11.27;2.85;;;;;;;22.67;62.69;100695.66;5033737;28;20032;-86
2021/09/11 08:43:29;;;;;;;9.00;2.60;;;;;;;22.36;63.60;100704.53;5033521;28;20029;-87
2021/09/11 08:45:55;;;;;;;4.93;1.80;;;;;;;22.46;63.58;100691.78;5033252;28;20038;-87
2021/09/11 08:48:20;;;;;;;5.97;2.33;;;;;;;22.18;64.61;100702.06;5033380;28;20025;-86
2021/09/11 08:50:46;;;;;;;7.10;1.95;;;;;;;22.39;63.50;100709.50;5033517;28;20040;-86
2021/09/11 08:53:11;;;;;;;5.75;1.95;;;;;;;22.55;63.68;100696.06;5033280;28;20063;-86
2021/09/11 08:55:37;;;;;;;12.55;2.03;;;;;;;22.75;61.97;100698.31;5033257;28;20048;-86
2021/09/11 08:58:05;;;;;;;10.90;2.75;;;;;;;22.82;63.25;100706.47;5033160;28;20112;-87
2021/09/11 09:00:44;;;;;;;9.10;1.90;;;;;;;23.04;62.70;100694.13;5033117;28;20159;-86
2021/09/11 09:03:26;;;;;;;9.70;2.25;;;;;;;23.22;61.62;100691.94;5033192;28;20029;-86
2021/09/11 09:05:53;;;;;;;6.72;2.00;;;;;;;22.70;61.33;100700.66;5033237;28;20124;-86
2021/09/11 09:08:28;;;;;;;8.32;1.92;;;;;;;22.96;61.74;100701.16;5033293;28;20056;-87
2021/09/11 09:10:54;;;;;;;9.20;2.13;;;;;;;23.11;60.29;100698.59;5032931;28;20025;-86
2021/09/11 09:13:19;;;;;;;7.18;2.05;;;;;;;23.51;60.84;100706.44;5032921;28;20048;-86
2021/09/11 09:15:45;;;;;;;10.82;2.53;;;;;;;23.85;59.16;100703.28;5033026;28;20108;-87
2021/09/11 09:18:14;;;;;;;8.40;2.10;;;;;;;23.43;59.52;100704.69;5032923;28;20045;-86
2021/09/11 09:20:39;;;;;;;5.85;2.08;;;;;;;23.21;60.19;100714.41;5032883;28;20056;-86
2021/09/11 09:23:17;;;;;;;8.48;1.90;;;;;;;23.32;60.06;100705.94;5032898;28;20476;-86
2021/09/11 09:25:44;;;;;;;8.55;1.92;;;;;;;24.35;56.09;100703.56;5032507;28;20048;-86
2021/09/11 09:28:12;;;;;;;11.82;2.63;;;;;;;24.33;56.83;100708.28;5032641;28;20368;-87
2021/09/11 09:30:45;;;;;;;6.30;1.73;;;;;;;24.24;57.47;100693.28;5032597;28;20484;-87
2021/09/11 09:33:19;;;;;;;11.38;2.45;;;;;;;24.65;56.13;100701.66;5032569;28;20025;-86
2021/09/11 09:35:45;;;;;;;6.25;1.77;;;;;;;24.69;56.30;100696.75;5032416;28;20480;-87
2021/09/11 09:38:11;;;;;;;6.72;1.70;;;;;;;24.66;56.34;100703.31;5032472;28;20434;-87
2021/09/11 09:40:41;;;;;;;6.85;1.40;;;;;;;24.43;56.49;100708.00;5032493;28;20472;-86
2021/09/11 09:43:08;;;;;;;5.90;1.50;;;;;;;26.13;53.26;100699.19;5032522;28;20447;-86
2021/09/11 09:45:34;;;;;;;8.50;2.85;;;;;;;25.51;52.40;100701.69;5032365;28;20060;-86
2021/09/11 09:48:05;;;;;;;5.50;1.88;;;;;;;26.06;51.83;100704.53;5032305;28;20032;-87
2021/09/11 09:50:34;;;;;;;7.40;1.50;;;;;;;26.09;50.61;100698.75;5032332;28;20029;-86
2021/09/11 09:53:00;;;;;;;10.85;1.70;;;;;;;25.98;52.10;100701.19;5032180;28;20017;-87
2021/09/11 09:55:26;;;;;;;7.10;2.35;;;;;;;27.09;49.76;100703.63;5032323;28;20029;-86
2021/09/11 09:57:52;;;;;;;4.03;1.40;;;;;;;27.92;49.48;100705.91;5032028;28;20028;-87
2021/09/11 10:00:18;;;;;;;3.15;1.10;;;;;;;28.60;46.09;100704.66;5032286;28;20029;-87
2021/09/11 10:02:43;;;;;;;5.93;1.17;;;;;;;28.12;47.10;100702.34;5032040;28;20061;-87
2021/09/11 10:05:13;;;;;;;8.50;2.00;;;;;;;27.36;48.27;100709.91;5031965;28;20040;-86
2021/09/11 10:07:46;;;;;;;4.45;1.33;;;;;;;27.21;49.49;100712.78;5032093;28;20101;-86
2021/09/11 10:10:12;;;;;;;4.32;1.40;;;;;;;26.48;48.86;100713.44;5032075;28;20026;-87
2021/09/11 10:12:41;;;;;;;5.45;1.30;;;;;;;26.12;49.68;100706.41;5031909;28;20040;-86
2021/09/11 10:15:28;;;;;;;5.10;1.50;;;;;;;25.77;49.76;100710.13;5031837;28;20120;-87
2021/09/11 10:17:55;;;;;;;5.82;1.63;;;;;;;26.58;50.40;100701.44;5031919;28;20049;-87
2021/09/11 10:20:22;;;;;;;5.97;1.33;;;;;;;26.05;50.35;100700.19;5031951;28;20065;-87
2021/09/11 10:23:08;;;;;;;3.47;1.38;;;;;;;27.73;48.17;100701.38;5031998;28;20025;-87
2021/09/11 10:25:40;;;;;;;4.45;1.45;;;;;;;28.57;45.78;100700.50;5031961;28;20399;-87
2021/09/11 10:28:17;;;;;;;4.65;1.45;;;;;;;29.52;43.81;100691.53;5031712;28;20049;-87
2021/09/11 10:31:01;;;;;;;5.57;1.35;;;;;;;30.31;42.16;100694.47;5031838;28;20045;-87
2021/09/11 10:33:39;;;;;;;4.45;1.55;;;;;;;30.37;40.36;100693.56;5031847;28;20495;-87
2021/09/11 10:36:04;;;;;;;4.82;1.42;;;;;;;30.79;40.64;100685.47;5031743;28;20030;-88
2021/09/11 10:38:41;;;;;;;5.28;1.60;;;;;;;31.62;38.71;100689.16;5031711;28;20033;-88
2021/09/11 10:41:11;;;;;;;3.92;1.50;;;;;;;32.10;37.74;100687.22;5031774;28;20037;-88
2021/09/11 10:43:37;;;;;;;3.28;0.98;;;;;;;32.42;36.07;100679.41;5031759;28;20112;-88
2021/09/11 10:46:08;;;;;;;6.28;1.23;;;;;;;33.14;35.04;100682.66;5031687;28;20037;-88
2021/09/11 10:48:36;;;;;;;8.52;1.45;;;;;;;32.32;35.74;100676.50;5031647;28;20053;-88
2021/09/11 10:51:32;;;;;;;4.70;1.08;;;;;;;32.46;35.14;100687.09;5031798;28;20041;-87
2021/09/11 10:54:15;;;;;;;6.53;0.93;;;;;;;32.36;35.59;100683.09;5031501;28;20505;-88
2021/09/11 10:56:48;;;;;;;4.00;1.30;;;;;;;33.02;35.68;100682.69;5031624;28;20068;-87
2021/09/11 10:59:13;;;;;;;2.15;0.90;;;;;;;31.75;37.01;100689.97;5031520;28;20041;-88
2021/09/11 11:01:58;;;;;;;5.22;1.15;;;;;;;30.88;38.21;100687.84;5031880;28;20111;-88
2021/09/11 11:04:28;;;;;;;5.13;1.10;;;;;;;31.06;38.08;100695.91;5031690;28;20483;-88
2021/09/11 11:06:56;;;;;;;2.97;0.90;;;;;;;30.26;37.85;100691.59;5031900;28;20037;-88
2021/09/11 11:09:22;;;;;;;3.25;0.90;;;;;;;30.05;39.02;100691.00;5034371;28;20041;-87
2021/09/11 11:11:51;;;;;;;4.13;1.10;;;;;;;30.28;39.02;100689.47;5035335;28;20064;-87
2021/09/11 11:14:17;;;;;;;4.53;1.40;;;;;;;29.49;40.23;100686.56;5035267;28;20523;-87
2021/09/11 11:16:47;;;;;;;5.18;1.08;;;;;;;29.50;40.57;100690.91;5035266;28;20041;-88
2021/09/11 11:19:43;;;;;;;4.88;1.10;;;;;;;29.58;39.26;100687.94;5035455;28;20026;-87